createdAt,value
2018-12-13T00:00:14.930Z,-6.86
2018-12-13T00:01:14.903Z,-6.83
2018-12-13T00:02:14.881Z,-6.79
2018-12-13T00:03:14.862Z,-6.69
2018-12-13T00:04:14.845Z,-6.74
2018-12-13T00:05:14.810Z,-6.68
2018-12-13T00:06:14.790Z,-6.59
2018-12-13T00:07:14.768Z,-6.65
2018-12-13T00:08:14.744Z,-6.50
2018-12-13T00:09:14.725Z,-6.52
2018-12-13T00:10:14.718Z,-6.62
2018-12-13T00:11:14.674Z,-6.59
2018-12-13T00:12:14.664Z,-6.59
2018-12-13T00:13:14.627Z,-6.62
2018-12-13T00:14:14.609Z,-6.55
2018-12-13T00:15:14.581Z,-6.61
2018-12-13T00:16:14.561Z,-6.49
2018-12-13T00:17:14.539Z,-6.52
2018-12-13T00:18:14.513Z,-6.52
2018-12-13T00:19:14.503Z,-6.50
2018-12-13T00:20:14.470Z,-6.59
2018-12-13T00:21:14.442Z,-6.61
2018-12-13T00:22:14.418Z,-6.68
2018-12-13T00:23:14.395Z,-6.61
2018-12-13T00:24:14.375Z,-6.66
2018-12-13T00:25:14.350Z,-6.63
2018-12-13T00:26:14.327Z,-6.68
2018-12-13T00:27:14.312Z,-6.62
2018-12-13T00:28:14.280Z,-6.62
2018-12-13T00:29:14.261Z,-6.65
2018-12-13T00:30:14.238Z,-6.59
2018-12-13T00:31:14.216Z,-6.50
2018-12-13T00:32:14.190Z,-6.43
2018-12-13T00:33:14.166Z,-6.39
2018-12-13T00:34:14.138Z,-6.44
2018-12-13T00:35:14.119Z,-6.43
2018-12-13T00:36:14.099Z,-6.36
2018-12-13T00:37:14.078Z,-6.36
2018-12-13T00:38:14.051Z,-6.34
2018-12-13T00:39:14.036Z,-6.34
2018-12-13T00:40:14.005Z,-6.36
2018-12-13T00:41:13.987Z,-6.37
2018-12-13T00:42:13.955Z,-6.37
2018-12-13T00:43:13.940Z,-6.40
2018-12-13T00:44:13.908Z,-6.49
2018-12-13T00:45:13.894Z,-6.26
2018-12-13T00:46:13.866Z,-6.39
2018-12-13T00:47:13.836Z,-6.37
2018-12-13T00:48:13.830Z,-6.26
2018-12-13T00:49:13.800Z,-6.29
2018-12-13T00:50:13.781Z,-6.25
2018-12-13T00:51:13.751Z,-6.32
2018-12-13T00:52:13.731Z,-6.26
2018-12-13T00:53:13.705Z,-6.31
2018-12-13T00:54:13.678Z,-6.28
2018-12-13T00:55:13.659Z,-6.34
2018-12-13T00:56:13.635Z,-6.23
2018-12-13T00:57:13.617Z,-6.26
2018-12-13T00:58:13.591Z,-6.26
2018-12-13T00:59:13.576Z,-6.21
2018-12-13T01:00:13.542Z,-6.13
2018-12-13T01:01:13.522Z,-6.25
2018-12-13T01:02:13.498Z,-6.34
2018-12-13T01:03:13.480Z,-6.18
2018-12-13T01:04:13.455Z,-6.34
2018-12-13T01:05:13.428Z,-6.18
2018-12-13T01:06:13.403Z,-6.21
2018-12-13T01:07:13.383Z,-6.16
2018-12-13T01:08:13.367Z,-6.23
2018-12-13T01:09:13.339Z,-6.19
2018-12-13T01:10:13.312Z,-6.21
2018-12-13T01:11:13.295Z,-6.16
2018-12-13T01:12:13.271Z,-6.21
2018-12-13T01:13:13.249Z,-6.18
2018-12-13T01:14:13.233Z,-6.18
2018-12-13T01:15:13.199Z,-6.21
2018-12-13T01:16:13.177Z,-6.23
2018-12-13T01:17:13.160Z,-6.26
2018-12-13T01:18:13.133Z,-6.16
2018-12-13T01:19:13.111Z,-6.15
2018-12-13T01:20:13.087Z,-6.16
2018-12-13T01:21:13.070Z,-6.13
2018-12-13T01:22:13.040Z,-6.23
2018-12-13T01:23:13.023Z,-6.22
2018-12-13T01:24:13.005Z,-6.13
2018-12-13T01:25:12.973Z,-6.16
2018-12-13T01:26:12.953Z,-6.11
2018-12-13T01:27:12.930Z,-6.15
2018-12-13T01:28:12.915Z,-6.18
2018-12-13T01:29:12.878Z,-6.15
2018-12-13T01:30:12.862Z,-6.05
2018-12-13T01:31:12.835Z,-6.03
2018-12-13T01:32:12.814Z,-6.10
2018-12-13T01:33:12.797Z,-6.07
2018-12-13T01:34:12.759Z,-6.01
2018-12-13T01:35:12.755Z,-6.00
2018-12-13T01:36:12.721Z,-5.97
2018-12-13T01:37:12.705Z,-5.89
2018-12-13T01:38:12.675Z,-5.98
2018-12-13T01:39:12.654Z,-5.92
2018-12-13T01:40:12.631Z,-5.93
2018-12-13T01:41:12.602Z,-5.92
2018-12-13T01:42:12.582Z,-5.92
2018-12-13T01:43:12.560Z,-5.84
2018-12-13T01:44:12.542Z,-5.74
2018-12-13T01:45:12.531Z,-5.75
2018-12-13T01:46:12.494Z,-5.83
2018-12-13T01:47:12.471Z,-5.68
2018-12-13T01:48:12.446Z,-5.74
2018-12-13T01:49:12.423Z,-5.57
2018-12-13T01:50:12.401Z,-5.55
2018-12-13T01:51:12.379Z,-5.59
2018-12-13T01:52:12.355Z,-5.61
2018-12-13T01:53:12.327Z,-5.57
2018-12-13T01:54:12.311Z,-5.59
2018-12-13T01:55:12.288Z,-5.57
2018-12-13T01:56:12.266Z,-5.55
2018-12-13T01:57:12.246Z,-5.50
2018-12-13T01:58:12.220Z,-5.50
2018-12-13T01:59:12.204Z,-5.51
2018-12-13T02:00:12.177Z,-5.50
2018-12-13T02:01:12.152Z,-5.41
2018-12-13T02:02:12.126Z,-5.50
2018-12-13T02:03:12.108Z,-5.47
2018-12-13T02:04:12.079Z,-5.46
2018-12-13T02:05:12.065Z,-5.44
2018-12-13T02:06:12.041Z,-5.47
2018-12-13T02:07:12.013Z,-5.44
2018-12-13T02:08:11.994Z,-5.47
2018-12-13T02:09:11.970Z,-5.39
2018-12-13T02:10:11.950Z,-5.41
2018-12-13T02:11:11.940Z,-5.39
2018-12-13T02:12:11.906Z,-5.39
2018-12-13T02:13:11.884Z,-5.50
2018-12-13T02:14:11.857Z,-5.41
2018-12-13T02:15:11.838Z,-5.39
2018-12-13T02:16:11.808Z,-5.37
2018-12-13T02:17:11.790Z,-5.44
2018-12-13T02:18:11.766Z,-5.41
2018-12-13T02:19:11.735Z,-5.48
2018-12-13T02:20:11.736Z,-5.55
2018-12-13T02:21:11.693Z,-5.47
2018-12-13T02:22:11.678Z,-5.53
2018-12-13T02:23:11.649Z,-5.44
2018-12-13T02:24:11.631Z,-5.44
2018-12-13T02:25:11.605Z,-5.41
2018-12-13T02:26:11.577Z,-5.57
2018-12-13T02:27:11.562Z,-5.54
2018-12-13T02:28:11.541Z,-5.53
2018-12-13T02:29:11.526Z,-5.53
2018-12-13T02:30:11.492Z,-5.54
2018-12-13T02:31:11.466Z,-5.47
2018-12-13T02:32:11.447Z,-5.43
2018-12-13T02:33:11.415Z,-5.54
2018-12-13T02:34:11.417Z,-5.55
2018-12-13T02:35:11.376Z,-5.51
2018-12-13T02:36:11.356Z,-5.51
2018-12-13T02:37:11.330Z,-5.53
2018-12-13T02:38:11.311Z,-5.54
2018-12-13T02:39:11.290Z,-5.39
2018-12-13T02:40:11.263Z,-5.50
2018-12-13T02:41:11.241Z,-5.48
2018-12-13T02:42:11.221Z,-5.51
2018-12-13T02:43:11.197Z,-5.48
2018-12-13T02:44:11.169Z,-5.50
2018-12-13T02:45:11.149Z,-5.48
2018-12-13T02:46:11.130Z,-5.44
2018-12-13T02:47:11.105Z,-5.41
2018-12-13T02:48:11.083Z,-5.47
2018-12-13T02:49:11.060Z,-5.57
2018-12-13T02:50:11.039Z,-5.44
2018-12-13T02:51:11.017Z,-5.44
2018-12-13T02:52:10.993Z,-5.43
2018-12-13T02:53:10.967Z,-5.46
2018-12-13T02:54:10.946Z,-5.51
2018-12-13T02:55:10.922Z,-5.51
2018-12-13T02:56:10.901Z,-5.47
2018-12-13T02:57:10.880Z,-5.54
2018-12-13T02:58:10.860Z,-5.47
2018-12-13T02:59:10.836Z,-5.57
2018-12-13T03:00:10.808Z,-5.53
2018-12-13T03:01:10.785Z,-5.51
2018-12-13T03:02:10.766Z,-5.55
2018-12-13T03:03:10.746Z,-5.35
2018-12-13T03:04:10.725Z,-5.41
2018-12-13T03:05:10.702Z,-5.32
2018-12-13T03:06:10.679Z,-5.32
2018-12-13T03:07:13.917Z,-5.33
2018-12-13T03:08:10.628Z,-5.41
2018-12-13T03:09:10.603Z,-5.35
2018-12-13T03:10:10.583Z,-5.29
2018-12-13T03:11:10.560Z,-5.36
2018-12-13T03:12:10.539Z,-5.37
2018-12-13T03:13:10.516Z,-5.39
2018-12-13T03:14:10.490Z,-5.41
2018-12-13T03:15:10.466Z,-5.43
2018-12-13T03:16:10.449Z,-5.48
2018-12-13T03:17:10.422Z,-5.39
2018-12-13T03:18:10.405Z,-5.51
2018-12-13T03:19:10.382Z,-5.47
2018-12-13T03:20:10.359Z,-5.55
2018-12-13T03:21:10.360Z,-5.53
2018-12-13T03:22:10.308Z,-5.44
2018-12-13T03:23:10.297Z,-5.47
2018-12-13T03:24:10.265Z,-5.53
2018-12-13T03:25:10.245Z,-5.54
2018-12-13T03:26:10.219Z,-5.51
2018-12-13T03:27:10.198Z,-5.51
2018-12-13T03:28:10.169Z,-5.53
2018-12-13T03:29:10.155Z,-5.50
2018-12-13T03:30:10.128Z,-5.51
2018-12-13T03:31:10.117Z,-5.47
2018-12-13T03:32:10.080Z,-5.53
2018-12-13T03:33:10.059Z,-5.36
2018-12-13T03:34:10.040Z,-5.41
2018-12-13T03:35:10.008Z,-5.39
2018-12-13T03:36:09.991Z,-5.39
2018-12-13T03:37:09.971Z,-5.37
2018-12-13T03:38:09.951Z,-5.44
2018-12-13T03:39:09.927Z,-5.47
2018-12-13T03:40:09.905Z,-5.37
2018-12-13T03:41:09.883Z,-5.36
2018-12-13T03:42:09.856Z,-5.37
2018-12-13T03:43:09.829Z,-5.43
2018-12-13T03:44:09.810Z,-5.30
2018-12-13T03:45:09.795Z,-5.39
2018-12-13T03:46:09.771Z,-5.30
2018-12-13T03:47:09.746Z,-5.30
2018-12-13T03:48:09.722Z,-5.26
2018-12-13T03:49:09.697Z,-5.30
2018-12-13T03:50:09.690Z,-5.27
2018-12-13T03:51:09.656Z,-5.36
2018-12-13T03:52:09.633Z,-5.27
2018-12-13T03:53:09.601Z,-5.35
2018-12-13T03:54:09.585Z,-5.30
2018-12-13T03:55:09.564Z,-5.36
2018-12-13T03:56:09.541Z,-5.41
2018-12-13T03:57:09.518Z,-5.36
2018-12-13T03:58:09.500Z,-5.37
2018-12-13T03:59:09.472Z,-5.32
2018-12-13T04:00:09.451Z,-5.32
2018-12-13T04:01:09.438Z,-5.37
2018-12-13T04:02:09.400Z,-5.41
2018-12-13T04:03:09.379Z,-5.39
2018-12-13T04:04:09.358Z,-5.43
2018-12-13T04:05:09.336Z,-5.51
2018-12-13T04:06:09.347Z,-5.44
2018-12-13T04:07:09.292Z,-5.48
2018-12-13T04:08:09.265Z,-5.53
2018-12-13T04:09:09.242Z,-5.54
2018-12-13T04:10:09.222Z,-5.54
2018-12-13T04:11:09.193Z,-5.47
2018-12-13T04:12:09.175Z,-5.54
2018-12-13T04:13:09.163Z,-5.55
2018-12-13T04:14:09.126Z,-5.41
2018-12-13T04:15:09.111Z,-5.57
2018-12-13T04:16:09.084Z,-5.43
2018-12-13T04:17:09.066Z,-5.57
2018-12-13T04:18:09.050Z,-5.43
2018-12-13T04:19:09.012Z,-5.59
2018-12-13T04:20:08.998Z,-5.51
2018-12-13T04:21:08.969Z,-5.51
2018-12-13T04:22:08.949Z,-5.39
2018-12-13T04:23:08.926Z,-5.43
2018-12-13T04:24:08.915Z,-5.37
2018-12-13T04:25:08.876Z,-5.47
2018-12-13T04:26:08.860Z,-5.37
2018-12-13T04:27:08.835Z,-5.46
2018-12-13T04:28:08.804Z,-5.37
2018-12-13T04:29:08.791Z,-5.37
2018-12-13T04:30:08.767Z,-5.37
2018-12-13T04:31:08.744Z,-5.37
2018-12-13T04:32:08.724Z,-5.36
2018-12-13T04:33:08.702Z,-5.39
2018-12-13T04:34:08.674Z,-5.47
2018-12-13T04:35:08.651Z,-5.37
2018-12-13T04:36:08.630Z,-5.37
2018-12-13T04:37:08.610Z,-5.36
2018-12-13T04:38:08.590Z,-5.33
2018-12-13T04:39:08.560Z,-5.39
2018-12-13T04:40:08.541Z,-5.33
2018-12-13T04:41:08.520Z,-5.35
2018-12-13T04:42:08.490Z,-5.27
2018-12-13T04:43:08.469Z,-5.26
2018-12-13T04:44:08.449Z,-5.36
2018-12-13T04:45:08.435Z,-5.32
2018-12-13T04:46:08.398Z,-5.41
2018-12-13T04:47:08.381Z,-5.39
2018-12-13T04:48:08.353Z,-5.53
2018-12-13T04:49:08.362Z,-5.37
2018-12-13T04:50:08.307Z,-5.46
2018-12-13T04:51:08.288Z,-5.43
2018-12-13T04:52:08.263Z,-5.51
2018-12-13T04:53:08.240Z,-5.46
2018-12-13T04:54:08.212Z,-5.54
2018-12-13T04:55:08.202Z,-5.43
2018-12-13T04:56:08.174Z,-5.53
2018-12-13T04:57:08.159Z,-5.54
2018-12-13T04:58:08.127Z,-5.54
2018-12-13T04:59:08.101Z,-5.53
2018-12-13T05:00:08.085Z,-5.48
2018-12-13T05:01:08.063Z,-5.47
2018-12-13T05:02:08.043Z,-5.51
2018-12-13T05:03:08.013Z,-5.54
2018-12-13T05:04:07.990Z,-5.54
2018-12-13T05:05:07.974Z,-5.55
2018-12-13T05:06:07.942Z,-5.51
2018-12-13T05:07:07.929Z,-5.51
2018-12-13T05:08:07.898Z,-5.43
2018-12-13T05:09:07.881Z,-5.47
2018-12-13T05:10:07.852Z,-5.43
2018-12-13T05:11:07.832Z,-5.54
2018-12-13T05:12:07.820Z,-5.55
2018-12-13T05:13:07.784Z,-5.54
2018-12-13T05:14:07.791Z,-5.59
2018-12-13T05:15:07.744Z,-5.46
2018-12-13T05:16:07.724Z,-5.57
2018-12-13T05:17:07.699Z,-5.44
2018-12-13T05:18:07.677Z,-5.44
2018-12-13T05:19:07.655Z,-5.44
2018-12-13T05:20:07.621Z,-5.44
2018-12-13T05:21:07.607Z,-5.47
2018-12-13T05:22:07.581Z,-5.47
2018-12-13T05:23:07.564Z,-5.47
2018-12-13T05:24:07.541Z,-5.50
2018-12-13T05:25:07.513Z,-5.54
2018-12-13T05:26:07.494Z,-5.51
2018-12-13T05:27:07.460Z,-5.54
2018-12-13T05:28:07.452Z,-5.43
2018-12-13T05:29:07.425Z,-5.41
2018-12-13T05:30:07.407Z,-5.47
2018-12-13T05:31:07.373Z,-5.47
2018-12-13T05:32:07.361Z,-5.47
2018-12-13T05:33:07.344Z,-5.50
2018-12-13T05:34:07.312Z,-5.46
2018-12-13T05:35:07.296Z,-5.50
2018-12-13T05:36:07.268Z,-5.44
2018-12-13T05:37:07.252Z,-5.50
2018-12-13T05:38:07.226Z,-5.51
2018-12-13T05:39:07.196Z,-5.48
2018-12-13T05:40:07.181Z,-5.51
2018-12-13T05:41:07.145Z,-5.54
2018-12-13T05:42:07.137Z,-5.46
2018-12-13T05:43:07.103Z,-5.50
2018-12-13T05:44:07.084Z,-5.43
2018-12-13T05:45:07.072Z,-5.37
2018-12-13T05:46:07.034Z,-5.46
2018-12-13T05:47:07.017Z,-5.43
2018-12-13T05:48:06.989Z,-5.43
2018-12-13T05:49:06.984Z,-5.39
2018-12-13T05:50:06.946Z,-5.39
2018-12-13T05:51:06.929Z,-5.26
2018-12-13T05:52:06.901Z,-5.37
2018-12-13T05:53:06.882Z,-5.37
2018-12-13T05:54:06.855Z,-5.35
2018-12-13T05:55:06.830Z,-5.35
2018-12-13T05:56:06.820Z,-5.41
2018-12-13T05:57:06.785Z,-5.41
2018-12-13T05:58:06.767Z,-5.41
2018-12-13T05:59:06.747Z,-5.41
2018-12-13T06:00:06.719Z,-5.37
2018-12-13T06:01:06.704Z,-5.27
2018-12-13T06:02:06.672Z,-5.29
2018-12-13T06:03:06.653Z,-5.30
2018-12-13T06:04:06.633Z,-5.30
2018-12-13T06:05:06.609Z,-5.36
2018-12-13T06:06:06.581Z,-5.25
2018-12-13T06:07:06.561Z,-5.37
2018-12-13T06:08:06.540Z,-5.27
2018-12-13T06:09:06.514Z,-5.32
2018-12-13T06:10:06.490Z,-5.27
2018-12-13T06:11:06.471Z,-5.23
2018-12-13T06:12:06.450Z,-5.14
2018-12-13T06:13:06.422Z,-5.19
2018-12-13T06:14:06.400Z,-5.17
2018-12-13T06:15:06.377Z,-5.25
2018-12-13T06:16:06.352Z,-5.22
2018-12-13T06:17:06.330Z,-5.08
2018-12-13T06:18:06.948Z,-5.11
2018-12-13T06:19:06.290Z,-5.23
2018-12-13T06:20:06.264Z,-5.25
2018-12-13T06:21:11.733Z,-5.08
2018-12-13T06:22:06.231Z,-5.23
2018-12-13T06:23:06.212Z,-5.18
2018-12-13T06:24:06.172Z,-5.18
2018-12-13T06:25:06.153Z,-5.30
2018-12-13T06:26:06.130Z,-5.23
2018-12-13T06:27:06.107Z,-5.29
2018-12-13T06:28:06.084Z,-5.23
2018-12-13T06:29:06.151Z,-5.27
2018-12-13T06:30:07.611Z,-5.27
2018-12-13T06:31:06.012Z,-5.32
2018-12-13T06:32:05.992Z,-5.27
2018-12-13T06:33:05.969Z,-5.29
2018-12-13T06:34:05.955Z,-5.35
2018-12-13T06:35:05.925Z,-5.22
2018-12-13T06:36:05.902Z,-5.27
2018-12-13T06:37:05.878Z,-5.25
2018-12-13T06:38:05.851Z,-5.29
2018-12-13T06:39:05.837Z,-5.32
2018-12-13T06:40:05.810Z,-5.30
2018-12-13T06:41:05.794Z,-5.30
2018-12-13T06:42:05.766Z,-5.32
2018-12-13T06:43:05.749Z,-5.27
2018-12-13T06:44:05.714Z,-5.22
2018-12-13T06:45:05.703Z,-5.25
2018-12-13T06:46:05.692Z,-5.29
2018-12-13T06:47:05.642Z,-5.22
2018-12-13T06:48:05.636Z,-5.26
2018-12-13T06:49:05.616Z,-5.17
2018-12-13T06:50:05.582Z,-5.25
2018-12-13T06:51:05.559Z,-5.25
2018-12-13T06:52:05.535Z,-5.26
2018-12-13T06:53:05.511Z,-5.19
2018-12-13T06:54:05.487Z,-5.27
2018-12-13T06:55:05.467Z,-5.29
2018-12-13T06:56:05.446Z,-5.35
2018-12-13T06:57:05.425Z,-5.25
2018-12-13T06:58:05.389Z,-5.25
2018-12-13T06:59:05.376Z,-5.22
2018-12-13T07:00:05.358Z,-5.26
2018-12-13T07:01:05.328Z,-5.25
2018-12-13T07:02:05.305Z,-5.18
2018-12-13T07:03:05.290Z,-5.27
2018-12-13T07:04:05.269Z,-5.23
2018-12-13T07:05:05.251Z,-5.27
2018-12-13T07:06:05.215Z,-5.18
2018-12-13T07:07:05.192Z,-5.25
2018-12-13T07:08:07.933Z,-5.25
2018-12-13T07:09:05.154Z,-5.22
2018-12-13T07:10:05.125Z,-5.11
2018-12-13T07:11:05.103Z,-5.10
2018-12-13T07:12:05.075Z,-5.22
2018-12-13T07:13:05.073Z,-5.13
2018-12-13T07:14:06.382Z,-5.10
2018-12-13T07:15:05.016Z,-5.19
2018-12-13T07:16:04.990Z,-5.03
2018-12-13T07:17:04.969Z,-5.11
2018-12-13T07:18:04.955Z,-5.03
2018-12-13T07:19:04.923Z,-5.13
2018-12-13T07:20:04.896Z,-5.08
2018-12-13T07:21:04.876Z,-5.10
2018-12-13T07:22:04.852Z,-5.03
2018-12-13T07:23:04.829Z,-5.11
2018-12-13T07:24:04.808Z,-5.07
2018-12-13T07:25:04.786Z,-5.08
2018-12-13T07:26:04.763Z,-5.04
2018-12-13T07:27:04.740Z,-5.10
2018-12-13T07:28:04.714Z,-5.08
2018-12-13T07:29:04.694Z,-5.11
2018-12-13T07:30:04.674Z,-5.06
2018-12-13T07:31:04.654Z,-5.08
2018-12-13T07:32:04.622Z,-5.07
2018-12-13T07:33:04.607Z,-5.11
2018-12-13T07:34:04.580Z,-5.10
2018-12-13T07:35:04.555Z,-5.11
2018-12-13T07:36:04.533Z,-5.06
2018-12-13T07:37:04.509Z,-5.07
2018-12-13T07:38:04.489Z,-5.00
2018-12-13T07:39:04.479Z,-5.00
2018-12-13T07:40:04.445Z,-5.00
2018-12-13T07:41:04.420Z,-4.96
2018-12-13T07:42:04.396Z,-4.96
2018-12-13T07:43:04.378Z,-5.08
2018-12-13T07:44:04.356Z,-5.07
2018-12-13T07:45:04.331Z,-5.03
2018-12-13T07:46:04.310Z,-4.99
2018-12-13T07:47:04.287Z,-4.99
2018-12-13T07:48:04.264Z,-4.97
2018-12-13T07:49:04.239Z,-5.07
2018-12-13T07:50:04.220Z,-5.00
2018-12-13T07:51:04.194Z,-4.95
2018-12-13T07:52:04.172Z,-4.93
2018-12-13T07:53:04.156Z,-4.90
2018-12-13T07:54:04.133Z,-5.04
2018-12-13T07:55:04.099Z,-5.06
2018-12-13T07:56:04.083Z,-4.93
2018-12-13T07:57:04.061Z,-4.89
2018-12-13T07:58:04.033Z,-4.90
2018-12-13T07:59:04.017Z,-5.07
2018-12-13T08:00:03.987Z,-4.90
2018-12-13T08:01:03.969Z,-4.92
2018-12-13T08:02:03.950Z,-4.90
2018-12-13T08:03:03.923Z,-4.89
2018-12-13T08:04:03.901Z,-4.93
2018-12-13T08:05:03.883Z,-4.95
2018-12-13T08:06:03.868Z,-4.87
2018-12-13T08:07:03.826Z,-4.79
2018-12-13T08:08:03.813Z,-4.89
2018-12-13T08:09:03.790Z,-4.85
2018-12-13T08:10:03.761Z,-4.86
2018-12-13T08:11:03.739Z,-4.86
2018-12-13T08:12:03.720Z,-4.81
2018-12-13T08:13:03.695Z,-4.85
2018-12-13T08:14:03.673Z,-4.81
2018-12-13T08:15:03.655Z,-4.75
2018-12-13T08:16:03.631Z,-4.75
2018-12-13T08:17:03.607Z,-4.79
2018-12-13T08:18:03.583Z,-4.71
2018-12-13T08:19:03.574Z,-4.71
2018-12-13T08:20:03.542Z,-4.65
2018-12-13T08:21:03.517Z,-4.67
2018-12-13T08:22:03.498Z,-4.61
2018-12-13T08:23:03.473Z,-4.63
2018-12-13T08:24:03.449Z,-4.67
2018-12-13T08:25:03.426Z,-4.57
2018-12-13T08:26:03.408Z,-4.65
2018-12-13T08:27:03.387Z,-4.67
2018-12-13T08:28:03.359Z,-4.61
2018-12-13T08:29:03.346Z,-4.61
2018-12-13T08:30:03.313Z,-4.61
2018-12-13T08:31:03.296Z,-4.63
2018-12-13T08:32:03.270Z,-4.61
2018-12-13T08:33:03.245Z,-4.54
2018-12-13T08:34:03.225Z,-4.50
2018-12-13T08:35:03.203Z,-4.50
2018-12-13T08:36:03.181Z,-4.56
2018-12-13T08:37:03.157Z,-4.46
2018-12-13T08:38:03.132Z,-4.49
2018-12-13T08:39:03.113Z,-4.53
2018-12-13T08:40:03.087Z,-4.51
2018-12-13T08:41:03.069Z,-4.57
2018-12-13T08:42:03.045Z,-4.40
2018-12-13T08:43:03.023Z,-4.43
2018-12-13T08:44:03.000Z,-4.47
2018-12-13T08:45:02.974Z,-4.42
2018-12-13T08:46:02.955Z,-4.42
2018-12-13T08:47:02.946Z,-4.43
2018-12-13T08:48:02.916Z,-4.36
2018-12-13T08:49:02.897Z,-4.40
2018-12-13T08:50:02.864Z,-4.46
2018-12-13T08:51:02.843Z,-4.36
2018-12-13T08:52:02.825Z,-4.35
2018-12-13T08:53:02.798Z,-4.33
2018-12-13T08:54:02.777Z,-4.30
2018-12-13T08:55:02.758Z,-4.12
2018-12-13T08:56:02.736Z,-4.07
2018-12-13T08:57:02.711Z,-3.94
2018-12-13T08:58:02.683Z,-3.76
2018-12-13T08:59:02.669Z,-3.59
2018-12-13T09:00:02.643Z,-3.49
2018-12-13T09:01:02.635Z,-3.27
2018-12-13T09:02:02.599Z,-3.00
2018-12-13T09:03:02.588Z,-2.96
2018-12-13T09:04:02.558Z,-2.77
2018-12-13T09:05:02.536Z,-2.53
2018-12-13T09:06:02.514Z,-2.26
2018-12-13T09:07:02.488Z,-2.18
2018-12-13T09:08:02.473Z,-2.15
2018-12-13T09:09:02.445Z,-1.95
2018-12-13T09:10:02.423Z,-1.82
2018-12-13T09:11:02.402Z,-1.67
2018-12-13T09:12:02.385Z,-1.52
2018-12-13T09:13:02.363Z,-1.27
2018-12-13T09:14:02.341Z,-1.27
2018-12-13T09:15:02.319Z,-1.09
2018-12-13T09:16:02.294Z,-1.02
2018-12-13T09:17:02.282Z,-0.98
2018-12-13T09:18:02.249Z,-0.80
2018-12-13T09:19:02.240Z,-0.72
2018-12-13T09:20:02.210Z,-0.57
2018-12-13T09:21:02.198Z,-0.43
2018-12-13T09:22:02.173Z,-0.36
2018-12-13T09:23:02.153Z,-0.40
2018-12-13T09:24:02.133Z,-0.29
2018-12-13T09:25:02.115Z,-0.19
2018-12-13T09:26:02.089Z,0.02
2018-12-13T09:27:02.067Z,-0.07
2018-12-13T09:28:02.055Z,-0.37
2018-12-13T09:29:02.033Z,-0.33
2018-12-13T09:30:02.006Z,-0.31
2018-12-13T09:31:01.991Z,-0.40
2018-12-13T09:32:01.971Z,-0.34
2018-12-13T09:33:01.944Z,-0.22
2018-12-13T09:34:01.935Z,-0.11
2018-12-13T09:35:01.903Z,-0.01
2018-12-13T09:36:01.889Z,0.15
2018-12-13T09:37:01.870Z,-0.40
2018-12-13T09:38:01.844Z,-0.78
2018-12-13T09:39:01.828Z,-0.72
2018-12-13T09:40:01.807Z,-0.64
2018-12-13T09:41:01.789Z,-0.55
2018-12-13T09:42:01.769Z,-0.39
2018-12-13T09:43:01.753Z,-0.04
2018-12-13T09:44:01.738Z,0.17
2018-12-13T09:45:01.711Z,0.50
2018-12-13T09:46:01.695Z,0.51
2018-12-13T09:47:01.671Z,0.87
2018-12-13T09:48:01.653Z,1.06
2018-12-13T09:49:01.636Z,1.20
2018-12-13T09:50:01.612Z,1.50
2018-12-13T09:51:01.591Z,1.62
2018-12-13T09:52:01.579Z,1.84
2018-12-13T09:53:01.555Z,1.90
2018-12-13T09:54:01.536Z,1.72
2018-12-13T09:55:05.581Z,1.90
2018-12-13T09:56:01.504Z,1.90
2018-12-13T09:57:01.482Z,1.81
2018-12-13T09:58:01.463Z,1.98
2018-12-13T09:59:01.443Z,1.76
2018-12-13T10:00:01.423Z,1.51
2018-12-13T10:01:01.407Z,1.45
2018-12-13T10:02:01.389Z,1.42
2018-12-13T10:03:01.378Z,1.37
2018-12-13T10:04:01.431Z,1.58
2018-12-13T10:05:01.335Z,1.77
2018-12-13T10:06:01.314Z,1.88
2018-12-13T10:07:01.364Z,2.10
2018-12-13T10:08:01.283Z,2.38
2018-12-13T10:09:01.264Z,2.52
2018-12-13T10:10:01.246Z,2.79
2018-12-13T10:11:01.223Z,2.95
2018-12-13T10:12:01.211Z,3.06
2018-12-13T10:13:01.189Z,3.32
2018-12-13T10:14:01.171Z,3.42
2018-12-13T10:15:01.155Z,3.61
2018-12-13T10:16:01.135Z,3.68
2018-12-13T10:17:01.113Z,3.54
2018-12-13T10:18:01.103Z,3.60
2018-12-13T10:19:01.084Z,3.60
2018-12-13T10:20:01.072Z,3.68
2018-12-13T10:21:01.049Z,3.88
2018-12-13T10:22:01.026Z,4.02
2018-12-13T10:23:01.014Z,3.93
2018-12-13T10:24:01.002Z,4.00
2018-12-13T10:25:00.982Z,3.91
2018-12-13T10:26:00.960Z,3.93
2018-12-13T10:27:00.945Z,4.08
2018-12-13T10:28:00.928Z,4.18
2018-12-13T10:29:00.910Z,4.24
2018-12-13T10:30:00.889Z,4.29
2018-12-13T10:31:00.884Z,4.14
2018-12-13T10:32:00.858Z,4.16
2018-12-13T10:33:00.846Z,4.42
2018-12-13T10:34:00.824Z,4.44
2018-12-13T10:35:00.813Z,4.52
2018-12-13T10:36:00.799Z,4.69
2018-12-13T10:37:00.786Z,4.82
2018-12-13T10:38:00.763Z,4.77
2018-12-13T10:39:00.743Z,4.62
2018-12-13T10:40:00.728Z,4.70
2018-12-13T10:41:00.706Z,4.85
2018-12-13T10:42:00.700Z,5.02
2018-12-13T10:43:00.669Z,5.20
2018-12-13T10:44:00.659Z,5.28
2018-12-13T10:45:00.645Z,5.43
2018-12-13T10:46:00.628Z,5.58
2018-12-13T10:47:00.611Z,5.40
2018-12-13T10:48:00.597Z,5.28
2018-12-13T10:49:00.583Z,4.94
2018-12-13T10:50:00.583Z,4.44
2018-12-13T10:51:00.548Z,3.94
2018-12-13T10:52:00.532Z,3.75
2018-12-13T10:53:00.520Z,3.73
2018-12-13T10:54:00.499Z,3.78
2018-12-13T10:55:00.484Z,3.91
2018-12-13T10:56:00.470Z,4.18
2018-12-13T10:57:00.464Z,4.42
2018-12-13T10:58:00.432Z,4.30
2018-12-13T10:59:00.417Z,4.04
2018-12-13T11:00:00.407Z,3.65
2018-12-13T11:01:00.387Z,3.75
2018-12-13T11:02:00.371Z,3.76
2018-12-13T11:03:00.359Z,3.97
2018-12-13T11:04:00.344Z,4.33
2018-12-13T11:05:00.325Z,4.30
2018-12-13T11:06:00.312Z,4.40
2018-12-13T11:07:00.298Z,3.91
2018-12-13T11:08:00.281Z,3.79
2018-12-13T11:09:00.265Z,3.60
2018-12-13T11:10:00.245Z,3.33
2018-12-13T11:11:00.223Z,3.02
2018-12-13T11:12:00.213Z,3.33
2018-12-13T11:13:00.194Z,3.51
2018-12-13T11:14:00.179Z,3.97
2018-12-13T11:15:00.166Z,4.04
2018-12-13T11:16:00.209Z,4.09
2018-12-13T11:17:00.137Z,4.02
2018-12-13T11:18:00.124Z,3.51
2018-12-13T11:19:00.129Z,2.95
2018-12-13T11:20:00.125Z,2.74
2018-12-13T11:21:00.098Z,2.75
2018-12-13T11:22:00.057Z,2.71
2018-12-13T11:23:00.038Z,2.75
2018-12-13T11:24:00.027Z,2.81
2018-12-13T11:25:00.017Z,3.08
2018-12-13T11:25:59.991Z,3.32
2018-12-13T11:27:00.038Z,3.33
2018-12-13T11:27:59.961Z,3.17
2018-12-13T11:29:00.875Z,3.32
2018-12-13T11:29:59.929Z,3.65
2018-12-13T11:30:59.950Z,3.97
2018-12-13T11:31:59.896Z,4.22
2018-12-13T11:32:59.878Z,4.50
2018-12-13T11:33:59.864Z,4.73
2018-12-13T11:34:59.846Z,4.97
2018-12-13T11:35:59.838Z,5.07
2018-12-13T11:36:59.817Z,5.12
2018-12-13T11:37:59.800Z,4.91
2018-12-13T11:39:05.581Z,4.58
2018-12-13T11:39:59.772Z,4.44
2018-12-13T11:40:59.754Z,4.47
2018-12-13T11:41:59.743Z,4.58
2018-12-13T11:42:59.728Z,4.34
2018-12-13T11:43:59.704Z,4.42
2018-12-13T11:44:59.691Z,4.12
2018-12-13T11:45:59.678Z,4.11
2018-12-13T11:46:59.659Z,3.72
2018-12-13T11:47:59.643Z,3.39
2018-12-13T11:48:59.632Z,3.42
2018-12-13T11:49:59.613Z,3.62
2018-12-13T11:50:59.594Z,4.05
2018-12-13T11:51:59.577Z,4.18
2018-12-13T11:52:59.565Z,4.04
2018-12-13T11:53:59.549Z,3.94
2018-12-13T11:54:59.536Z,3.96
2018-12-13T11:55:59.517Z,4.18
2018-12-13T11:56:59.512Z,4.32
2018-12-13T11:57:59.484Z,4.59
2018-12-13T11:58:59.476Z,4.30
2018-12-13T11:59:59.458Z,4.05
2018-12-13T12:00:59.445Z,3.93
2018-12-13T12:01:59.424Z,3.93
2018-12-13T12:02:59.409Z,3.79
2018-12-13T12:03:59.396Z,3.43
2018-12-13T12:04:59.372Z,3.42
2018-12-13T12:05:59.361Z,3.47
2018-12-13T12:06:59.354Z,3.61
2018-12-13T12:07:59.332Z,3.86
2018-12-13T12:08:59.321Z,4.14
2018-12-13T12:10:00.243Z,4.05
2018-12-13T12:10:59.282Z,4.00
2018-12-13T12:11:59.269Z,4.15
2018-12-13T12:12:59.253Z,3.94
2018-12-13T12:13:59.241Z,3.91
2018-12-13T12:14:59.221Z,3.88
2018-12-13T12:15:59.205Z,4.08
2018-12-13T12:16:59.191Z,4.36
2018-12-13T12:17:59.173Z,4.45
2018-12-13T12:18:59.173Z,4.58
2018-12-13T12:19:59.156Z,4.67
2018-12-13T12:20:59.144Z,4.80
2018-12-13T12:21:59.118Z,4.78
2018-12-13T12:22:59.105Z,4.88
2018-12-13T12:23:59.086Z,4.45
2018-12-13T12:24:59.072Z,4.05
2018-12-13T12:25:59.060Z,3.98
2018-12-13T12:26:59.041Z,3.98
2018-12-13T12:27:59.029Z,3.94
2018-12-13T12:28:59.009Z,3.90
2018-12-13T12:29:58.991Z,4.12
2018-12-13T12:30:58.979Z,4.32
2018-12-13T12:31:58.961Z,4.47
2018-12-13T12:32:58.945Z,4.36
2018-12-13T12:33:58.938Z,4.32
2018-12-13T12:34:58.921Z,4.48
2018-12-13T12:35:58.904Z,4.72
2018-12-13T12:36:58.896Z,4.99
2018-12-13T12:37:58.873Z,4.91
2018-12-13T12:38:58.854Z,4.73
2018-12-13T12:39:58.847Z,4.45
2018-12-13T12:40:58.825Z,4.34
2018-12-13T12:41:58.812Z,4.54
2018-12-13T12:42:58.794Z,4.67
2018-12-13T12:43:58.777Z,4.69
2018-12-13T12:44:58.763Z,4.72
2018-12-13T12:45:58.747Z,4.75
2018-12-13T12:46:58.733Z,4.97
2018-12-13T12:47:58.726Z,5.07
2018-12-13T12:48:58.714Z,5.27
2018-12-13T12:49:58.698Z,5.28
2018-12-13T12:50:58.675Z,5.27
2018-12-13T12:51:58.659Z,4.84
2018-12-13T12:52:58.645Z,4.62
2018-12-13T12:53:58.629Z,4.08
2018-12-13T12:54:58.612Z,4.00
2018-12-13T12:55:58.598Z,4.16
2018-12-13T12:56:58.589Z,4.23
2018-12-13T12:57:58.571Z,4.29
2018-12-13T12:58:58.551Z,4.45